Time;durP1;ratioP1;P1;durP2;ratioP2;P2;SDS_P1;SDS_P2;PMS_P1;PMS_P2;Temp;Humidity;BMP_temperature;BMP_pressure;BME280_temperature;BME280_humidity;BME280_pressure;Samples;Min_cycle;Max_cycle;Signal;HPM_P1;HPM_P2
2020/12/07 00:01:26;;;;;;;2.13;1.90;;;11.00;78.80;;;;;;5104772;28;20031;-48
2020/12/07 00:03:52;;;;;;;2.10;1.90;;;11.00;78.80;;;;;;5105119;28;20020;-47
2020/12/07 00:06:19;;;;;;;2.50;1.80;;;11.00;78.80;;;;;;5104526;28;20062;-47
2020/12/07 00:08:45;;;;;;;2.25;1.77;;;11.00;78.80;;;;;;5058492;28;20027;-47
2020/12/07 00:11:15;;;;;;;1.70;1.42;;;11.00;78.80;;;;;;5097845;28;20028;-47
2020/12/07 00:13:41;;;;;;;1.90;1.80;;;11.00;78.80;;;;;;5093874;28;20036;-48
2020/12/07 00:16:08;;;;;;;2.40;1.90;;;11.00;78.80;;;;;;5091641;28;20056;-47
2020/12/07 00:18:35;;;;;;;2.33;1.90;;;11.00;78.80;;;;;;5094163;28;20036;-47
2020/12/07 00:21:02;;;;;;;2.90;2.22;;;11.00;78.90;;;;;;5091712;28;20056;-47
2020/12/07 00:23:28;;;;;;;1.67;1.58;;;11.00;78.90;;;;;;5095704;28;20667;-48
2020/12/07 00:25:54;;;;;;;2.20;2.00;;;11.00;78.80;;;;;;5095191;28;20031;-47
2020/12/07 00:28:21;;;;;;;3.08;2.22;;;11.00;78.90;;;;;;5095381;28;20123;-48
2020/12/07 00:30:47;;;;;;;2.53;2.00;;;11.00;78.80;;;;;;5094048;28;20057;-47
2020/12/07 00:33:13;;;;;;;1.80;1.70;;;11.00;78.90;;;;;;5094927;28;20038;-47
2020/12/07 00:35:39;;;;;;;3.47;2.25;;;11.00;78.90;;;;;;5095362;28;20024;-47
2020/12/07 00:38:05;;;;;;;1.98;1.77;;;11.00;78.80;;;;;;5101468;28;20036;-47
2020/12/07 00:40:31;;;;;;;3.13;2.20;;;11.00;78.90;;;;;;5103602;28;20039;-48
2020/12/07 00:42:58;;;;;;;2.30;1.90;;;11.00;78.80;;;;;;5104313;28;20016;-46
2020/12/07 00:45:24;;;;;;;2.45;1.80;;;11.00;78.90;;;;;;5104061;28;20199;-46
2020/12/07 00:47:50;;;;;;;2.78;1.80;;;11.00;78.90;;;;;;5104031;28;20507;-46
2020/12/07 00:50:16;;;;;;;2.03;1.80;;;11.00;78.90;;;;;;5085457;28;20035;-47
2020/12/07 00:52:43;;;;;;;1.95;1.73;;;11.00;78.90;;;;;;5104088;28;20035;-47
2020/12/07 00:55:09;;;;;;;2.70;1.80;;;11.00;78.90;;;;;;5103910;28;20028;-47
2020/12/07 00:57:35;;;;;;;2.40;2.10;;;11.00;78.90;;;;;;5104254;28;20077;-47
2020/12/07 01:00:02;;;;;;;2.75;1.98;;;11.00;78.90;;;;;;5103958;28;20044;-47
2020/12/07 01:02:31;;;;;;;2.42;2.05;;;11.00;78.90;;;;;;5103422;28;20028;-49
2020/12/07 01:04:57;;;;;;;2.80;2.05;;;11.00;78.90;;;;;;5085843;28;20471;-48
2020/12/07 01:07:23;;;;;;;2.33;2.13;;;11.00;78.80;;;;;;5099935;28;20024;-46
2020/12/07 01:09:50;;;;;;;2.10;1.90;;;11.00;78.90;;;;;;5096107;28;20031;-46
2020/12/07 01:12:16;;;;;;;2.65;2.10;;;11.00;78.90;;;;;;5095492;28;20024;-47
2020/12/07 01:14:42;;;;;;;2.25;1.90;;;11.00;78.90;;;;;;5096303;27;20096;-46
2020/12/07 01:17:09;;;;;;;2.63;1.98;;;11.00;78.80;;;;;;5130615;27;20038;-48
2020/12/07 01:19:35;;;;;;;2.38;2.00;;;11.00;78.90;;;;;;5133138;27;20491;-47
2020/12/07 01:22:02;;;;;;;2.67;1.90;;;11.00;78.90;;;;;;5127361;27;20062;-48
2020/12/07 01:24:28;;;;;;;2.20;2.00;;;11.00;78.80;;;;;;5129382;27;20038;-47
2020/12/07 01:26:54;;;;;;;2.95;2.10;;;11.00;78.90;;;;;;5129836;27;20023;-47
2020/12/07 01:29:20;;;;;;;2.20;1.90;;;11.00;78.90;;;;;;5134649;27;20024;-46
2020/12/07 01:31:47;;;;;;;2.33;1.90;;;11.00;78.90;;;;;;5121785;27;20019;-47
2020/12/07 01:34:13;;;;;;;2.55;2.00;;;11.00;78.90;;;;;;5129133;27;20031;-47
2020/12/07 01:36:39;;;;;;;2.15;1.80;;;11.00;78.90;;;;;;5127870;27;20024;-47
2020/12/07 01:39:05;;;;;;;1.85;1.65;;;11.00;78.90;;;;;;5123285;28;20109;-46
2020/12/07 01:41:31;;;;;;;2.60;2.20;;;11.00;78.90;;;;;;5123265;28;20054;-47
2020/12/07 01:43:58;;;;;;;2.30;2.05;;;11.00;78.90;;;;;;5123602;28;20016;-46
2020/12/07 01:46:24;;;;;;;2.28;2.05;;;11.00;79.00;;;;;;5123555;28;20054;-46
2020/12/07 01:48:51;;;;;;;2.63;2.05;;;11.00;78.90;;;;;;5123691;27;20102;-47
2020/12/07 01:51:17;;;;;;;3.30;1.92;;;11.00;78.90;;;;;;5103145;28;20015;-46
2020/12/07 01:53:44;;;;;;;2.58;1.90;;;11.00;78.90;;;;;;5123202;27;20038;-47
2020/12/07 01:56:15;;;;;;;1.63;1.53;;;11.00;78.90;;;;;;5143950;27;20027;-47
2020/12/07 01:58:41;;;;;;;2.30;1.88;;;11.00;78.90;;;;;;5125335;27;20263;-47
2020/12/07 02:01:08;;;;;;;3.05;2.03;;;11.00;79.00;;;;;;5143571;27;20090;-47
2020/12/07 02:03:34;;;;;;;2.67;2.05;;;11.00;78.90;;;;;;5143784;27;20023;-47
2020/12/07 02:06:00;;;;;;;2.85;2.45;;;11.00;78.90;;;;;;5140366;27;20051;-50
2020/12/07 02:08:26;;;;;;;2.55;2.00;;;11.00;79.00;;;;;;5131962;27;20069;-46
2020/12/07 02:10:52;;;;;;;2.30;2.05;;;10.90;78.90;;;;;;5125579;27;20027;-52
2020/12/07 02:13:19;;;;;;;2.00;1.70;;;11.00;78.90;;;;;;5132402;27;20023;-47
2020/12/07 02:15:45;;;;;;;2.80;2.28;;;10.90;78.90;;;;;;5130228;27;20111;-47
2020/12/07 02:18:11;;;;;;;3.28;2.13;;;10.90;78.90;;;;;;5086076;27;20032;-47
2020/12/07 02:20:37;;;;;;;2.80;2.30;;;11.00;78.90;;;;;;5128144;28;20035;-47
2020/12/07 02:23:03;;;;;;;2.10;1.85;;;10.90;78.90;;;;;;5129297;28;20442;-47
2020/12/07 02:25:30;;;;;;;2.13;1.92;;;10.90;78.90;;;;;;5130222;28;20032;-46
2020/12/07 02:27:56;;;;;;;2.45;2.03;;;10.90;78.90;;;;;;5126266;28;20109;-46
2020/12/07 02:30:23;;;;;;;2.85;1.90;;;10.90;78.90;;;;;;5126373;28;20043;-47
2020/12/07 02:32:50;;;;;;;3.17;2.30;;;10.90;78.90;;;;;;5130466;28;20015;-47
2020/12/07 02:35:16;;;;;;;2.40;1.83;;;11.00;78.90;;;;;;5134261;28;20038;-47
2020/12/07 02:37:43;;;;;;;2.85;2.10;;;10.90;78.90;;;;;;5137577;28;20039;-47
2020/12/07 02:40:10;;;;;;;2.40;1.80;;;10.90;78.90;;;;;;5143261;28;20042;-46
2020/12/07 02:42:36;;;;;;;2.65;1.95;;;10.90;79.00;;;;;;5143107;28;20027;-47
2020/12/07 02:45:04;;;;;;;2.17;1.98;;;10.90;79.00;;;;;;5143392;28;20023;-47
2020/12/07 02:47:31;;;;;;;4.10;2.40;;;10.90;79.00;;;;;;5143333;28;20049;-47
2020/12/07 02:49:57;;;;;;;2.75;2.33;;;10.90;79.00;;;;;;5159206;27;20381;-46
2020/12/07 02:52:26;;;;;;;3.97;2.00;;;10.90;79.00;;;;;;5129733;28;20042;-47
2020/12/07 02:54:59;;;;;;;3.42;2.20;;;10.90;79.00;;;;;;5126027;28;20034;-47
2020/12/07 02:57:26;;;;;;;2.65;2.08;;;10.90;79.00;;;;;;5122665;28;20061;-46
2020/12/07 02:59:52;;;;;;;2.30;2.05;;;10.90;79.00;;;;;;5122564;28;20148;-47
2020/12/07 03:02:19;;;;;;;2.45;2.10;;;10.90;79.00;;;;;;5122513;28;20161;-47
2020/12/07 03:04:45;;;;;;;3.20;2.08;;;10.90;79.00;;;;;;5087160;28;20362;-47
2020/12/07 03:07:11;;;;;;;2.13;1.67;;;10.90;79.00;;;;;;5132100;28;20027;-47
2020/12/07 03:09:38;;;;;;;2.53;2.13;;;10.90;79.00;;;;;;5144901;27;20024;-47
2020/12/07 03:12:05;;;;;;;2.30;2.10;;;10.90;79.00;;;;;;5147111;27;20442;-48
2020/12/07 03:14:31;;;;;;;2.40;2.00;;;10.90;79.00;;;;;;5147157;27;20023;-47
2020/12/07 03:16:57;;;;;;;3.17;2.03;;;10.90;79.00;;;;;;5146634;27;20058;-47
2020/12/07 03:19:24;;;;;;;2.92;2.10;;;10.90;79.00;;;;;;5140368;27;20032;-47
2020/12/07 03:21:50;;;;;;;2.92;2.42;;;10.90;79.00;;;;;;5126365;28;20065;-47
2020/12/07 03:24:16;;;;;;;2.60;2.10;;;10.90;79.00;;;;;;5130707;27;20023;-46
2020/12/07 03:26:42;;;;;;;2.97;2.13;;;10.90;79.00;;;;;;5146782;27;20039;-47
2020/12/07 03:29:09;;;;;;;2.22;2.00;;;10.90;79.00;;;;;;5146717;27;20110;-46
2020/12/07 03:31:37;;;;;;;2.60;2.20;;;10.90;79.70;;;;;;5146565;27;20023;-47
2020/12/07 03:34:03;;;;;;;3.40;1.95;;;10.90;79.00;;;;;;5146349;27;20058;-47
2020/12/07 03:36:29;;;;;;;1.83;1.58;;;10.90;79.00;;;;;;5142476;27;20023;-47
2020/12/07 03:38:55;;;;;;;3.40;2.40;;;10.90;79.00;;;;;;5146541;27;20027;-48
2020/12/07 03:41:22;;;;;;;2.35;2.05;;;10.90;79.00;;;;;;5146472;27;20056;-48
2020/12/07 03:43:48;;;;;;;3.65;2.65;;;10.90;79.00;;;;;;5139261;27;20076;-47
2020/12/07 03:46:14;;;;;;;2.78;2.10;;;10.90;79.00;;;;;;5125658;28;20042;-47
2020/12/07 03:48:40;;;;;;;2.50;2.05;;;10.90;79.00;;;;;;5125774;27;20020;-47
2020/12/07 03:51:06;;;;;;;2.92;2.30;;;10.90;79.00;;;;;;5146155;27;20023;-50
2020/12/07 03:53:34;;;;;;;2.90;2.17;;;10.90;79.00;;;;;;5132372;27;20135;-47
2020/12/07 03:56:01;;;;;;;2.92;2.33;;;10.90;79.00;;;;;;5145357;27;20030;-46
2020/12/07 03:58:27;;;;;;;2.92;2.33;;;10.90;79.00;;;;;;5146170;27;20034;-47
2020/12/07 04:00:54;;;;;;;2.20;2.00;;;10.90;79.00;;;;;;5146020;27;20050;-46
2020/12/07 04:03:21;;;;;;;3.03;2.40;;;10.90;79.00;;;;;;5145631;27;20019;-47
2020/12/07 04:05:52;;;;;;;2.58;2.38;;;10.90;79.00;;;;;;5144841;27;20023;-47
2020/12/07 04:08:18;;;;;;;4.18;2.60;;;10.90;79.00;;;;;;5144187;27;20015;-47
2020/12/07 04:10:44;;;;;;;3.05;2.67;;;10.90;79.00;;;;;;5146004;27;20027;-47
2020/12/07 04:13:11;;;;;;;2.33;2.10;;;10.90;79.00;;;;;;5145730;27;20057;-47
2020/12/07 04:15:37;;;;;;;2.63;2.40;;;10.90;79.00;;;;;;5145575;27;20067;-47
2020/12/07 04:18:04;;;;;;;2.50;2.30;;;10.90;79.00;;;;;;5145703;27;20049;-46
2020/12/07 04:20:30;;;;;;;3.25;2.42;;;10.90;79.00;;;;;;5129255;27;20036;-46
2020/12/07 04:22:56;;;;;;;2.65;2.45;;;10.90;79.00;;;;;;5125263;28;20083;-46
2020/12/07 04:25:23;;;;;;;2.47;2.28;;;10.90;79.70;;;;;;5138889;27;20035;-46
2020/12/07 04:27:50;;;;;;;3.85;2.42;;;10.90;79.00;;;;;;5145612;27;20019;-47
2020/12/07 04:30:16;;;;;;;4.25;2.38;;;10.90;79.00;;;;;;5127164;27;20038;-46
2020/12/07 04:32:42;;;;;;;4.03;2.50;;;10.90;79.00;;;;;;5128681;27;20427;-46
2020/12/07 04:35:08;;;;;;;2.67;2.17;;;10.90;79.00;;;;;;5124688;28;20036;-46
2020/12/07 04:37:34;;;;;;;3.95;2.60;;;10.90;79.00;;;;;;5137463;27;20038;-47
2020/12/07 04:40:01;;;;;;;3.22;2.60;;;10.90;79.00;;;;;;5140084;27;20023;-47
2020/12/07 04:42:27;;;;;;;3.30;2.40;;;10.90;79.00;;;;;;5124810;28;20023;-47
2020/12/07 04:44:53;;;;;;;2.80;2.03;;;10.80;78.90;;;;;;5106044;28;20065;-47
2020/12/07 04:47:19;;;;;;;3.33;2.45;;;10.90;79.00;;;;;;5124637;28;20027;-47
2020/12/07 04:49:46;;;;;;;4.45;2.47;;;10.90;79.00;;;;;;5133862;27;20038;-48
2020/12/07 04:52:15;;;;;;;4.25;2.70;;;10.90;79.00;;;;;;5145055;27;20023;-46
2020/12/07 04:54:44;;;;;;;2.95;2.08;;;10.90;79.00;;;;;;5114221;28;20091;-47
2020/12/07 04:57:11;;;;;;;3.55;2.63;;;10.90;79.00;;;;;;5102835;28;20027;-46
2020/12/07 04:59:38;;;;;;;2.22;1.98;;;10.80;78.90;;;;;;5102619;28;20054;-46
2020/12/07 05:02:04;;;;;;;3.47;2.58;;;10.90;79.00;;;;;;5085779;28;20028;-46
2020/12/07 05:04:30;;;;;;;3.42;2.40;;;10.80;78.90;;;;;;5138074;27;20061;-46
2020/12/07 05:07:00;;;;;;;3.63;2.50;;;10.80;78.90;;;;;;5141186;27;20033;-47
2020/12/07 05:09:27;;;;;;;5.72;2.45;;;10.90;79.00;;;;;;5144786;27;20038;-47
2020/12/07 05:11:59;;;;;;;4.17;2.60;;;10.90;79.10;;;;;;5126364;27;20023;-47
2020/12/07 05:14:25;;;;;;;4.72;2.58;;;10.80;79.00;;;;;;5144264;27;20966;-46
2020/12/07 05:16:51;;;;;;;3.15;2.20;;;10.80;78.90;;;;;;5144395;27;20137;-46
2020/12/07 05:19:23;;;;;;;3.47;2.47;;;10.80;79.00;;;;;;5139091;27;20031;-46
2020/12/07 05:21:50;;;;;;;2.47;2.25;;;10.80;78.90;;;;;;5124060;28;20054;-46
2020/12/07 05:24:19;;;;;;;2.90;2.60;;;10.80;78.90;;;;;;5128284;27;20019;-46
2020/12/07 05:26:46;;;;;;;3.25;2.45;;;10.80;78.90;;;;;;5144571;27;20055;-47
2020/12/07 05:29:20;;;;;;;3.92;2.63;;;10.80;79.00;;;;;;5144305;27;20027;-47
2020/12/07 05:31:46;;;;;;;3.33;2.47;;;10.80;79.00;;;;;;5143585;27;20038;-46
2020/12/07 05:34:12;;;;;;;3.00;2.50;;;10.80;79.00;;;;;;5125555;27;20049;-46
2020/12/07 05:36:38;;;;;;;3.35;2.85;;;10.90;79.00;;;;;;5140381;27;20051;-46
2020/12/07 05:39:05;;;;;;;2.83;2.45;;;10.80;78.90;;;;;;5144237;27;20037;-46
2020/12/07 05:41:31;;;;;;;2.80;2.50;;;10.80;78.90;;;;;;5144117;27;20035;-46
2020/12/07 05:43:58;;;;;;;3.20;2.30;;;10.80;78.90;;;;;;5125677;27;20395;-46
2020/12/07 05:46:28;;;;;;;3.15;2.50;;;10.90;79.00;;;;;;5123141;28;20270;-46
2020/12/07 05:48:55;;;;;;;3.13;2.47;;;10.80;78.90;;;;;;5125589;27;20031;-46
2020/12/07 05:51:25;;;;;;;3.25;2.72;;;10.80;78.90;;;;;;5125626;27;20027;-46
2020/12/07 05:53:51;;;;;;;2.83;2.25;;;10.80;78.90;;;;;;5142629;27;20107;-46
2020/12/07 05:56:18;;;;;;;3.67;2.90;;;10.80;78.90;;;;;;5123237;28;20027;-46
2020/12/07 05:59:04;;;;;;;2.83;2.47;;;10.80;78.90;;;;;;5124125;27;20268;-46
2020/12/07 06:01:31;;;;;;;2.92;2.28;;;10.80;78.90;;;;;;5106104;28;20551;-48
2020/12/07 06:03:57;;;;;;;3.60;3.05;;;10.80;79.00;;;;;;5123271;28;20028;-46
2020/12/07 06:06:35;;;;;;;4.63;2.97;;;10.80;78.90;;;;;;5125445;27;20042;-47
2020/12/07 06:09:06;;;;;;;3.15;2.63;;;10.80;78.90;;;;;;5143692;27;20387;-47
2020/12/07 06:11:40;;;;;;;3.45;2.65;;;10.80;78.90;;;;;;5125571;28;20083;-46
2020/12/07 06:14:06;;;;;;;2.65;2.45;;;10.80;78.90;;;;;;5125245;28;20027;-47
2020/12/07 06:16:37;;;;;;;4.70;2.70;;;10.80;78.90;;;;;;5125195;27;20106;-46
2020/12/07 06:19:16;;;;;;;3.85;2.70;;;10.80;78.90;;;;;;5122357;28;20512;-47
2020/12/07 06:21:58;;;;;;;3.63;2.55;;;10.80;79.00;;;;;;5123148;28;20080;-52
2020/12/07 06:24:37;;;;;;;3.28;2.70;;;10.80;79.00;;;;;;5112407;28;20237;-46
2020/12/07 06:27:05;;;;;;;3.75;2.75;;;10.80;78.90;;;;;;5101134;28;20039;-45
2020/12/07 06:29:31;;;;;;;3.67;2.80;;;10.80;78.90;;;;;;5101359;28;20024;-47
2020/12/07 06:31:58;;;;;;;4.38;2.60;;;10.80;78.90;;;;;;5102670;28;20039;-47
2020/12/07 06:34:44;;;;;;;3.72;2.63;;;10.80;78.90;;;;;;5102812;28;20020;-47
2020/12/07 06:37:11;;;;;;;3.58;2.80;;;10.80;79.00;;;;;;5124495;28;20053;-46
2020/12/07 06:39:44;;;;;;;3.72;2.78;;;10.80;79.00;;;;;;5143365;28;20026;-47
2020/12/07 06:42:12;;;;;;;3.53;2.53;;;10.80;79.00;;;;;;5143380;28;20035;-47
2020/12/07 06:44:43;;;;;;;3.58;2.70;;;10.80;78.90;;;;;;5111709;27;20023;-46
2020/12/07 06:47:14;;;;;;;3.80;2.75;;;10.80;78.90;;;;;;5147459;27;20487;-47
2020/12/07 06:49:55;;;;;;;2.88;2.47;;;10.80;78.90;;;;;;5117143;28;20032;-47
2020/12/07 06:52:23;;;;;;;3.63;2.95;;;10.80;79.00;;;;;;5118551;28;20035;-47
2020/12/07 06:55:10;;;;;;;4.47;3.25;;;10.80;79.00;;;;;;5136486;27;20057;-46
2020/12/07 06:57:46;;;;;;;3.67;2.83;;;10.80;79.00;;;;;;5143453;27;20026;-47
2020/12/07 07:00:23;;;;;;;3.00;2.70;;;10.80;79.00;;;;;;5147512;27;20037;-47
2020/12/07 07:02:50;;;;;;;3.53;2.80;;;10.80;79.00;;;;;;5128956;27;20019;-47
2020/12/07 07:05:18;;;;;;;3.47;2.47;;;10.80;78.90;;;;;;5147228;27;20030;-48
2020/12/07 07:07:44;;;;;;;3.35;2.67;;;10.70;78.90;;;;;;5143405;27;20058;-47
2020/12/07 07:10:12;;;;;;;3.65;2.85;;;10.70;78.90;;;;;;5147202;27;20055;-47
2020/12/07 07:12:38;;;;;;;3.10;2.55;;;10.70;78.90;;;;;;5128959;27;20119;-47
2020/12/07 07:15:06;;;;;;;3.83;2.92;;;10.70;79.00;;;;;;5128440;27;20035;-47
2020/12/07 07:17:32;;;;;;;;;;;10.70;78.90;;;;;;5147444;27;20035;-48
2020/12/07 07:19:59;;;;;;;3.25;2.67;;;10.80;79.00;;;;;;5135619;27;19950;-48
2020/12/07 07:22:26;;;;;;;4.32;2.97;;;10.80;79.00;;;;;;5126547;28;20032;-47
2020/12/07 07:30:07;;;;;;;4.07;2.90;;;10.70;79.00;;;;;;5146935;27;20030;-47
2020/12/07 07:32:33;;;;;;;4.32;3.03;;;10.70;78.90;;;;;;5128307;27;20727;-47
2020/12/07 07:34:59;;;;;;;4.22;3.00;;;10.70;78.90;;;;;;5146869;27;20047;-47
2020/12/07 07:37:26;;;;;;;3.50;3.15;;;10.70;78.90;;;;;;5142680;27;20027;-47
2020/12/07 07:40:03;;;;;;;3.85;2.85;;;10.70;78.90;;;;;;5146387;27;20039;-47
2020/12/07 07:42:29;;;;;;;3.92;3.10;;;10.70;79.00;;;;;;5131468;27;20027;-48
2020/12/07 07:44:56;;;;;;;2.90;2.50;;;10.70;79.00;;;;;;5107640;28;20023;-46
2020/12/07 07:48:08;;;;;;;4.97;2.90;;;10.70;79.00;;;;;;5125673;28;20101;-47
2020/12/07 08:11:52;;;;;;;4.10;2.80;;;10.60;79.00;;;;;;5140212;27;20031;-47
2020/12/07 08:16:33;;;;;;;4.82;3.30;;;10.60;79.00;;;;;;5145609;27;20472;-46
2020/12/07 08:19:00;;;;;;;3.95;3.10;;;10.60;79.00;;;;;;5142951;27;20042;-47
2020/12/07 08:21:31;;;;;;;3.60;3.03;;;10.60;79.00;;;;;;5125297;28;20036;-46
2020/12/07 08:23:59;;;;;;;3.05;2.67;;;10.60;79.00;;;;;;5127130;27;20030;-46
2020/12/07 08:26:25;;;;;;;3.35;2.58;;;10.50;78.90;;;;;;5110265;28;20095;-46
2020/12/07 08:28:53;;;;;;;3.58;3.08;;;10.60;79.00;;;;;;5104818;28;20055;-47
2020/12/07 08:31:22;;;;;;;3.90;3.20;;;10.50;78.90;;;;;;5104898;28;20494;-46
2020/12/07 08:34:02;;;;;;;3.55;3.10;;;10.60;79.00;;;;;;5104326;28;20024;-46
2020/12/07 08:36:30;;;;;;;4.20;2.95;;;10.50;78.90;;;;;;5115077;27;20031;-47
2020/12/07 08:38:56;;;;;;;3.20;2.78;;;10.50;78.90;;;;;;5145430;27;20027;-47
2020/12/07 08:41:24;;;;;;;3.10;2.80;;;10.50;78.90;;;;;;5145461;27;20039;-46
2020/12/07 08:43:52;;;;;;;4.13;2.97;;;10.50;78.90;;;;;;5145322;27;20030;-46
2020/12/07 08:46:20;;;;;;;3.78;3.10;;;10.50;78.90;;;;;;5145370;27;20024;-47
2020/12/07 08:48:46;;;;;;;3.42;2.97;;;10.50;79.00;;;;;;5144212;27;20027;-46
2020/12/07 08:51:13;;;;;;;3.55;2.75;;;10.50;78.90;;;;;;5124734;28;20053;-46
2020/12/07 08:53:40;;;;;;;5.45;3.28;;;10.50;78.90;;;;;;5124448;28;20023;-46
2020/12/07 08:56:07;;;;;;;3.93;2.47;;;10.50;79.00;;;;;;5145026;27;20039;-46
2020/12/07 08:58:33;;;;;;;4.93;3.00;;;10.50;79.00;;;;;;5145355;27;20038;-46
2020/12/07 09:01:01;;;;;;;3.80;2.15;;;10.40;78.90;;;;;;5145111;27;20047;-47
2020/12/07 09:03:28;;;;;;;3.70;3.05;;;10.40;78.90;;;;;;5144816;27;20623;-47
2020/12/07 09:05:54;;;;;;;3.83;2.88;;;10.40;78.90;;;;;;5142723;27;20076;-46
2020/12/07 09:08:20;;;;;;;4.18;3.15;;;10.40;78.90;;;;;;5140389;27;20030;-47
2020/12/07 09:10:46;;;;;;;3.45;3.10;;;10.40;78.90;;;;;;5144761;27;20052;-46
2020/12/07 09:13:13;;;;;;;3.45;3.08;;;10.40;78.90;;;;;;5144728;27;20019;-47
2020/12/07 09:15:39;;;;;;;4.03;2.97;;;10.40;79.00;;;;;;5144916;27;20414;-47
2020/12/07 09:18:05;;;;;;;5.30;3.33;;;10.40;78.90;;;;;;5144935;27;20443;-47
2020/12/07 09:20:31;;;;;;;3.42;2.83;;;10.40;79.00;;;;;;5128675;27;20035;-46
2020/12/07 09:22:57;;;;;;;3.97;3.13;;;10.30;78.90;;;;;;5105858;28;20046;-46
2020/12/07 09:25:24;;;;;;;4.38;2.95;;;10.30;78.90;;;;;;5138014;27;20118;-46
2020/12/07 09:27:50;;;;;;;3.67;3.08;;;10.40;79.00;;;;;;5144823;27;20050;-46
2020/12/07 09:30:16;;;;;;;4.32;3.22;;;10.30;79.00;;;;;;5144574;27;20029;-47
2020/12/07 09:32:42;;;;;;;3.65;3.20;;;10.30;78.90;;;;;;5144564;27;20034;-47
2020/12/07 09:35:08;;;;;;;3.67;2.90;;;10.30;78.90;;;;;;5144547;27;20031;-47
2020/12/07 09:37:37;;;;;;;4.07;3.35;;;10.30;78.90;;;;;;5140669;27;20062;-47
2020/12/07 09:40:05;;;;;;;4.53;2.90;;;10.30;78.90;;;;;;5138656;27;20028;-47
2020/12/07 09:42:32;;;;;;;4.07;3.17;;;10.30;78.90;;;;;;5123784;28;20092;-46
2020/12/07 09:44:59;;;;;;;3.22;2.78;;;10.30;79.00;;;;;;5123646;28;20028;-47
2020/12/07 09:47:26;;;;;;;3.90;2.88;;;10.30;78.90;;;;;;5123713;28;20059;-47
2020/12/07 09:49:52;;;;;;;4.68;3.00;;;10.30;78.90;;;;;;5134129;27;20023;-47
2020/12/07 09:52:18;;;;;;;3.05;2.75;;;10.20;78.90;;;;;;5140871;27;20024;-46
2020/12/07 09:54:46;;;;;;;3.92;3.20;;;10.30;79.00;;;;;;5134972;27;20024;-46
2020/12/07 09:57:12;;;;;;;4.18;2.90;;;10.20;78.80;;;;;;5123575;28;20024;-46
2020/12/07 09:59:38;;;;;;;3.50;3.00;;;10.20;78.90;;;;;;5123485;28;20028;-46
2020/12/07 10:02:04;;;;;;;3.72;2.75;;;10.20;78.90;;;;;;5123808;28;20487;-47
2020/12/07 10:04:32;;;;;;;3.80;3.17;;;10.20;78.90;;;;;;5123265;28;20035;-46
2020/12/07 10:06:58;;;;;;;3.42;3.05;;;10.20;78.90;;;;;;5125396;27;20028;-47
2020/12/07 10:09:24;;;;;;;4.68;2.97;;;10.20;78.80;;;;;;5130267;27;20046;-47
2020/12/07 10:11:50;;;;;;;3.25;2.95;;;10.20;78.90;;;;;;5125665;27;20034;-47
2020/12/07 10:14:17;;;;;;;3.60;2.75;;;10.20;78.80;;;;;;5127839;27;20087;-46
2020/12/07 10:16:46;;;;;;;3.83;2.97;;;10.20;78.90;;;;;;5126859;27;20055;-48
2020/12/07 10:19:12;;;;;;;4.00;3.20;;;10.10;78.80;;;;;;5124460;27;20028;-48
2020/12/07 10:21:39;;;;;;;4.78;3.08;;;10.20;78.90;;;;;;5123728;28;20035;-46
2020/12/07 10:24:05;;;;;;;2.85;2.65;;;10.20;79.00;;;;;;5106169;28;20027;-46
2020/12/07 10:26:32;;;;;;;3.22;2.67;;;10.10;78.90;;;;;;5143743;27;20116;-46
2020/12/07 10:28:58;;;;;;;3.58;2.78;;;10.10;78.90;;;;;;5106933;28;20049;-47
2020/12/07 10:31:25;;;;;;;2.95;2.63;;;10.10;78.90;;;;;;5126159;28;20031;-46
2020/12/07 10:33:51;;;;;;;3.50;2.75;;;10.10;78.90;;;;;;5128363;28;20034;-46
2020/12/07 10:36:18;;;;;;;4.32;2.80;;;10.10;79.00;;;;;;5105374;28;20023;-47
2020/12/07 10:38:45;;;;;;;3.72;2.78;;;10.10;78.90;;;;;;5143886;28;20053;-47
2020/12/07 10:41:13;;;;;;;3.88;3.20;;;10.00;78.80;;;;;;5143671;28;20098;-47
2020/12/07 10:43:40;;;;;;;3.55;2.90;;;10.10;79.00;;;;;;5140364;28;20027;-47
2020/12/07 10:46:07;;;;;;;4.03;3.20;;;10.00;78.90;;;;;;5104685;28;20027;-47
2020/12/07 10:48:33;;;;;;;4.40;2.97;;;10.10;79.00;;;;;;5123070;28;20055;-47
2020/12/07 10:50:59;;;;;;;3.92;2.60;;;10.00;78.90;;;;;;5143023;28;20030;-47
2020/12/07 10:53:25;;;;;;;4.38;2.90;;;10.00;78.90;;;;;;5143695;28;20039;-47
2020/12/07 10:55:52;;;;;;;3.17;2.67;;;10.00;78.90;;;;;;5103132;28;20024;-48
2020/12/07 10:58:19;;;;;;;3.33;2.83;;;10.00;78.90;;;;;;5101321;28;20024;-47
2020/12/07 11:00:46;;;;;;;3.53;2.72;;;10.00;78.90;;;;;;5102891;28;20040;-46
2020/12/07 11:03:12;;;;;;;3.97;3.10;;;10.00;78.90;;;;;;5102399;28;20034;-46
2020/12/07 11:05:40;;;;;;;3.80;3.00;;;10.00;79.00;;;;;;5102356;28;20028;-47
2020/12/07 11:08:30;;;;;;;2.95;2.60;;;10.00;78.90;;;;;;5140060;28;20035;-46
2020/12/07 11:10:56;;;;;;;3.45;2.90;;;10.00;78.90;;;;;;5143414;28;20082;-46
2020/12/07 11:13:30;;;;;;;2.95;2.60;;;10.00;78.90;;;;;;5143609;28;20095;-46
2020/12/07 11:16:00;;;;;;;3.22;2.72;;;10.00;78.90;;;;;;5125874;28;20043;-46
2020/12/07 11:18:30;;;;;;;3.30;2.58;;;9.90;78.90;;;;;;5122305;28;20023;-46
2020/12/07 11:20:57;;;;;;;3.60;3.03;;;9.90;79.00;;;;;;5123763;28;20062;-46
2020/12/07 11:23:23;;;;;;;3.87;2.87;;;9.90;78.90;;;;;;5122880;28;20030;-46
2020/12/07 11:25:50;;;;;;;2.77;2.23;;;9.90;78.90;;;;;;5140678;28;20027;-46
2020/12/07 11:28:16;;;;;;;3.10;2.80;;;9.90;79.70;;;;;;5143474;28;20338;-47
2020/12/07 11:30:42;;;;;;;3.67;3.00;;;9.90;79.00;;;;;;5145159;27;20042;-46
2020/12/07 11:33:09;;;;;;;3.95;3.15;;;9.90;79.00;;;;;;5147099;27;20567;-47
2020/12/07 11:35:35;;;;;;;3.35;2.80;;;9.90;79.00;;;;;;5146992;27;20030;-48
2020/12/07 11:38:10;;;;;;;3.42;2.95;;;9.90;79.00;;;;;;5143101;27;20023;-46
2020/12/07 11:40:59;;;;;;;3.55;3.03;;;9.90;79.00;;;;;;5146895;27;20090;-46
2020/12/07 11:46:07;;;;;;;3.60;3.08;;;9.80;78.90;;;;;;5118673;28;20023;-47
2020/12/07 11:48:33;;;;;;;3.80;2.85;;;9.80;79.00;;;;;;5126363;28;20015;-47
2020/12/07 11:50:59;;;;;;;3.47;2.85;;;9.80;79.00;;;;;;5146008;27;20038;-47
2020/12/07 11:53:26;;;;;;;3.90;3.10;;;9.80;79.00;;;;;;5135645;27;20034;-47
2020/12/07 11:55:52;;;;;;;3.78;3.05;;;9.80;79.00;;;;;;5144135;27;20029;-47
2020/12/07 11:58:18;;;;;;;3.22;2.70;;;9.80;79.00;;;;;;5146520;27;20019;-47
2020/12/07 12:00:44;;;;;;;4.30;2.78;;;9.80;79.00;;;;;;5146726;27;20064;-47
2020/12/07 12:03:10;;;;;;;2.85;2.63;;;9.80;79.00;;;;;;5146637;27;20026;-47
2020/12/07 12:05:36;;;;;;;4.15;3.10;;;9.80;79.00;;;;;;5146116;27;20086;-46
2020/12/07 12:08:03;;;;;;;3.35;2.83;;;9.80;79.00;;;;;;5107241;28;20484;-46
2020/12/07 12:10:29;;;;;;;3.22;2.78;;;9.70;79.00;;;;;;5125649;28;20031;-47
2020/12/07 12:12:55;;;;;;;3.08;2.78;;;9.70;79.00;;;;;;5125844;28;20031;-47
2020/12/07 12:15:21;;;;;;;3.40;2.90;;;9.70;78.90;;;;;;5123343;28;20047;-47
2020/12/07 12:17:48;;;;;;;3.97;2.90;;;9.70;78.90;;;;;;5125390;28;20028;-47
2020/12/07 12:20:14;;;;;;;3.05;2.75;;;9.70;79.00;;;;;;5125326;28;20080;-47
2020/12/07 12:22:40;;;;;;;3.42;2.78;;;9.70;79.00;;;;;;5125622;28;20650;-47
2020/12/07 12:25:06;;;;;;;3.25;2.95;;;9.70;79.00;;;;;;5137668;27;20035;-46
2020/12/07 12:27:32;;;;;;;3.53;3.20;;;9.70;79.10;;;;;;5145815;27;20051;-47
2020/12/07 12:29:58;;;;;;;3.15;2.80;;;9.70;79.00;;;;;;5146080;27;20023;-46
2020/12/07 12:32:24;;;;;;;4.45;2.80;;;9.70;79.00;;;;;;5145874;27;20023;-46
2020/12/07 12:34:51;;;;;;;3.42;2.72;;;9.70;79.00;;;;;;5145066;27;20015;-46
2020/12/07 12:37:17;;;;;;;5.55;3.08;;;9.70;79.00;;;;;;5141953;27;20027;-46
2020/12/07 12:39:43;;;;;;;3.50;2.83;;;9.60;79.10;;;;;;5142972;27;20034;-48
2020/12/07 12:42:09;;;;;;;3.35;2.95;;;9.60;79.00;;;;;;5124712;28;20095;-47
2020/12/07 12:44:35;;;;;;;3.22;2.75;;;9.60;79.00;;;;;;5106818;28;20028;-48
2020/12/07 12:47:02;;;;;;;3.28;2.67;;;9.60;79.00;;;;;;5124883;28;20023;-46
2020/12/07 12:49:28;;;;;;;4.88;3.22;;;9.60;79.00;;;;;;5131922;27;20023;-46
2020/12/07 12:51:56;;;;;;;3.47;2.88;;;9.60;79.00;;;;;;5145477;27;20027;-46
2020/12/07 12:54:22;;;;;;;3.38;2.80;;;9.60;79.10;;;;;;5139667;27;20380;-47
2020/12/07 12:56:48;;;;;;;3.53;2.72;;;9.60;79.10;;;;;;5124360;28;20039;-47
2020/12/07 12:59:14;;;;;;;2.95;2.50;;;9.60;79.10;;;;;;5124847;28;20020;-46
2020/12/07 13:01:41;;;;;;;3.10;2.80;;;9.60;79.10;;;;;;5124895;28;20039;-47
2020/12/07 13:04:07;;;;;;;3.28;2.80;;;9.60;79.10;;;;;;5124457;28;20042;-46
2020/12/07 13:06:34;;;;;;;3.42;2.72;;;9.60;79.10;;;;;;5128207;27;20023;-47
2020/12/07 13:09:01;;;;;;;3.22;2.75;;;9.60;79.10;;;;;;5145270;27;20030;-46
2020/12/07 13:11:36;;;;;;;3.05;2.75;;;9.60;79.10;;;;;;5144936;27;20031;-46
2020/12/07 13:14:02;;;;;;;3.17;2.70;;;9.60;79.10;;;;;;5145356;27;20042;-47
2020/12/07 13:16:39;;;;;;;4.05;2.88;;;9.50;79.10;;;;;;5144886;27;20059;-47
2020/12/07 13:19:05;;;;;;;3.92;2.85;;;9.50;79.10;;;;;;5144986;27;20035;-47
2020/12/07 13:21:39;;;;;;;3.10;2.80;;;9.50;79.10;;;;;;5141331;27;20038;-47